• Join FlightAware (Why Join?)
  • Login
  • US Flag 
08:47PM EST


 

Airport Tracker/Info


-or-


 

Live Flight TrackerFlight Track Log ✈ UPS1214 ✈ 04-May-2013 ✈ KSDF - KBWI

Flight Track Log - Related Links

Times and Time Zones

All times are in EDT time to prevent confusion due to time zone crossing. See the UPS1214 flight status page for this flight to view local times or setup timezone preferences in your user account.

Time Position Orientation Groundspeed Altitude Reporting Facility
EDT Latitude Longitude Course Direction KTS MPH feet Rate Location/Type
05:23AM 38.1690 -85.7250 142° Southeast 159 183 900  Level FlightAware
05:24AM 38.1500 -85.7210 171° South 168 193 2,300 2,700 Climbing FlightAware
05:24AM 38.1230 -85.7150 170° South 205 236 3,400 2,580 Climbing FlightAware
05:25AM 38.0990 -85.7090 169° South 235 270 4,700 3,600 Climbing FlightAware
05:25AM 38.0700 -85.6930 157° South 253 291 6,700 4,080 Climbing FlightAware
05:25AM 38.0610 -85.6690 115° Southeast 275 316 7,800 3,900 Climbing FlightAware
05:26AM 38.0560 -85.6300 99° East 286 329 9,300 2,400 Climbing FlightAware
05:26AM 38.0490 -85.5520 96° East 324 373 10,600 2,040 Climbing FlightAware
05:27AM 38.0430 -85.4690 95° East 375 432 12,200 3,000 Climbing FlightAware
05:28AM 38.0360 -85.3800 96° East 396 456 14,600 3,300 Climbing FlightAware
05:29AM 38.0270 -85.2750 96° East 421 484 16,900 3,120 Climbing FlightAware
05:29AM 38.0200 -85.1750 95° East 438 504 19,100 3,120 Climbing FlightAware
05:30AM 38.0110 -85.0560 95° East 452 520 21,400 2,640 Climbing FlightAware
05:31AM 38.0030 -84.9480 95° East 474 545 22,900 2,520 Climbing FlightAware
05:31AM 37.9950 -84.8370 95° East 482 555 24,800 2,580 Climbing FlightAware
05:32AM 38.0010 -84.6820 87° East 502 578 27,000 2,760 Climbing FlightAware
05:33AM 38.0400 -84.5480 70° East 490 564 29,700 3,120 Climbing FlightAware
05:34AM 38.0760 -84.4400 67° East 483 556 31,700 2,460 Climbing FlightAware
05:34AM 38.1110 -84.3410 66° East 485 558 33,000 1,020 Climbing FlightAware
05:35AM 38.1450 -84.2450 66° East 493 567 33,000  Level FlightAware
05:36AM 38.1910 -84.1130 66° East 493 567 33,000  Level FlightAware
05:36AM 38.2270 -84.0090 66° East 492 566 33,000  Level FlightAware
05:37AM 38.2610 -83.9110 66° East 491 565 33,000  Level FlightAware
05:38AM 38.2840 -83.8440 66° East 491 565 33,000  Level FlightAware
05:38AM 38.3160 -83.7540 66° East 491 565 33,000  Level FlightAware
05:39AM 38.3590 -83.6200 68° East 486 559 33,000  Level FlightAware
05:40AM 38.4040 -83.4900 66° East 484 557 33,000  Level FlightAware
05:41AM 38.4520 -83.3490 66° East 482 555 33,000  Level FlightAware
05:42AM 38.5000 -83.2080 66° East 483 556 33,000  Level FlightAware
05:43AM 38.5570 -83.0330 67° East 484 557 33,000  Level FlightAware
05:44AM 38.6040 -82.8930 67° East 482 555 33,000 60 Level FlightAware
05:44AM 38.6320 -82.8060 68° East 482 555 33,100 60 Climbing FlightAware
05:45AM 38.6690 -82.6970 66° East 482 555 33,100 -120 Level FlightAware
05:46AM 38.7120 -82.5630 68° East 484 557 33,000 -120 Descending FlightAware
05:46AM 38.7460 -82.4600 67° East 485 558 33,000  Level FlightAware
05:47AM 38.7860 -82.3380 67° East 486 559 33,000  Level FlightAware
05:48AM 38.8200 -82.2320 68° East 487 560 33,000  Level FlightAware
05:48AM 38.8590 -82.1110 67° East 487 560 33,000  Level FlightAware
05:49AM 38.8940 -82.0040 67° East 488 562 33,000  Level FlightAware
05:50AM 38.9270 -81.9010 68° East 489 563 33,000 60 Level FlightAware
05:51AM 38.9660 -81.7790 68° East 490 564 33,100  Climbing FlightAware
05:51AM 39.0000 -81.6720 68° East 491 565 33,000 -120 Descending FlightAware
05:52AM 39.0390 -81.5470 68° East 492 566 33,000  Level FlightAware
05:53AM 39.0730 -81.4420 67° East 493 567 33,000 60 Level FlightAware
05:53AM 39.1070 -81.3330 68° East 493 567 33,100 60 Climbing FlightAware
05:54AM 39.1460 -81.2070 68° East 495 570 33,100  Level FlightAware
05:55AM 39.1810 -81.0970 68° East 495 570 33,100 -120 Level FlightAware
05:55AM 39.2140 -80.9900 68° East 495 570 33,000 -120 Descending FlightAware
05:56AM 39.2510 -80.8680 69° East 495 570 33,000  Level FlightAware
05:57AM 39.2750 -80.7560 74° East 491 565 33,000  Level FlightAware
05:58AM 39.2850 -80.6320 84° East 488 562 33,000 60 Level FlightAware
05:58AM 39.2890 -80.5420 87° East 488 562 33,100  Climbing FlightAware
05:59AM 39.2970 -80.3810 86° East 487 560 33,000 -120 Descending FlightAware
06:00AM 39.3020 -80.2660 87° East 488 562 33,000  Level FlightAware
06:00AM 39.3070 -80.1480 87° East 490 564 33,000  Level FlightAware
06:01AM 39.3130 -80.0180 87° East 490 564 33,000  Level FlightAware
06:02AM 39.3180 -79.8990 87° East 491 565 33,000  Level FlightAware
06:02AM 39.3220 -79.7830 87° East 493 567 33,000  Level FlightAware
06:03AM 39.3280 -79.6570 86° East 494 568 33,000 60 Level FlightAware
06:04AM 39.3320 -79.5340 88° East 494 568 33,100  Climbing FlightAware
06:05AM 39.3380 -79.4000 87° East 495 570 33,000 -1,080 Descending FlightAware
06:05AM 39.3420 -79.2830 87° East 482 555 31,600 -2,700 Descending FlightAware
06:06AM 39.3460 -79.1710 87° East 483 556 29,400 -3,360 Descending FlightAware
06:07AM 39.3500 -79.0510 87° East 480 552 26,900 -3,300 Descending FlightAware
06:07AM 39.3540 -78.9290 88° East 472 543 24,800 -3,360 Descending FlightAware
06:08AM 39.3580 -78.8020 88° East 465 535 22,200 -3,060 Descending FlightAware
06:09AM 39.3620 -78.6930 87° East 442 509 20,500 -2,640 Descending FlightAware
06:09AM 39.3660 -78.5780 87° East 425 489 18,500 -2,580 Descending FlightAware
06:10AM 39.3690 -78.4760 88° East 421 484 16,900 -2,280 Descending FlightAware
06:11AM 39.3720 -78.3770 88° East 421 484 15,500 -1,560 Descending FlightAware
06:12AM 39.3750 -78.2640 88° East 414 476 14,700 -600 Descending FlightAware
06:12AM 39.3770 -78.1680 88° East 413 475 14,700 -480 Level FlightAware
06:13AM 39.3660 -78.0580 97° East 407 468 14,100 -960 Descending FlightAware
06:14AM 39.3530 -77.9610 100° East 404 465 13,400 -1,680 Descending FlightAware
06:14AM 39.3390 -77.8710 101° East 391 450 11,900 -1,200 Descending FlightAware
06:15AM 39.3230 -77.7630 101° East 393 452 11,700 -180 Descending FlightAware
06:16AM 39.3090 -77.6730 101° East 387 445 11,700  Level FlightAware
06:16AM 39.2940 -77.5800 102° East 332 382 11,700 -180 Level FlightAware
06:17AM 39.2830 -77.5070 101° East 294 338 11,500 -600 Descending FlightAware
06:18AM 39.2720 -77.4390 102° East 278 320 10,900 -1,500 Descending FlightAware
06:18AM 39.2650 -77.3910 101° East 271 312 9,800 -2,340 Descending FlightAware
06:19AM 39.2570 -77.3450 103° East 265 305 8,600 -2,400 Descending FlightAware
06:19AM 39.2510 -77.3070 102° East 260 299 7,600 -2,400 Descending FlightAware
06:20AM 39.2440 -77.2620 101° East 255 293 6,400 -2,520 Descending FlightAware
06:20AM 39.2380 -77.2230 101° East 253 291 5,300 -2,580 Descending FlightAware
06:20AM 39.2350 -77.2020 100° East 253 291 4,700 -1,620 Descending FlightAware
06:21AM 39.2280 -77.1570 101° East 250 288 4,100 -1,200 Descending FlightAware
06:21AM 39.2260 -77.1460 103° East 248 285 3,900 -600 Descending FlightAware
06:22AM 39.2200 -77.1100 102° East 241 277 3,700 -240 Descending FlightAware
06:22AM 39.2140 -77.0740 102° East 240 276 3,700  Level FlightAware
06:22AM 39.2090 -77.0400 101° East 217 250 3,700  Level FlightAware
06:23AM 39.2040 -77.0120 103° East 213 245 3,700 -600 Level FlightAware
06:23AM 39.1980 -76.9720 101° East 210 242 3,200 -1,140 Descending FlightAware
06:24AM 39.1940 -76.9470 102° East 197 227 2,700 -600 Descending FlightAware
06:24AM 39.1880 -76.9120 102° East 174 200 2,700  Level FlightAware
06:24AM 39.1870 -76.9040 99° East 167 192 2,700  Level FlightAware
06:25AM 39.1850 -76.8780 96° East 157 181 2,700 -480 Level FlightAware
06:25AM 39.1840 -76.8500 93° East 144 166 2,300 -720 Descending FlightAware
06:26AM 39.1820 -76.8250 96° East 129 148 2,000 -660 Descending FlightAware
06:26AM 39.1810 -76.8060 94° East 139 160 1,700 -480 Descending FlightAware
06:27AM 39.1800 -76.7740 92° East 141 162 1,500 -480 Descending FlightAware
06:27AM 39.1780 -76.7510 96° East 129 148 1,100 -840 Descending FlightAware
06:28AM 39.1833 -76.7167 96° East 129 148 700 -960 Descending Potomac TRACON
06:30AM 39.1667 -76.6667 97° East  Level FlightAware Approximate
06:37AM 39.1754 -76.6683 97° East  Level Estimated
06:38AM 39.1754 -76.6683 97° East  Level Estimated
06:39AM 39.1754 -76.6683 97° East  Level Estimated